Portada
METAR-TAF:

METAR-TAF

Aeroports :

Army Air Corps Middle Wallop

Middle Wallop, Anglaterra

latitud: 51-09N, longitud: 001-34W, altitud: 91 m

Observació

L'informe es va fer fa 44 minuts, a les 18:50 UTC
Vent 16 kt del Nord/Nord-Est
Temperatura 5°C
Humitat 45%
Pressió 1039 hPa
Visibilitat 10 km o més

METAR: EGVP 291850Z AUTO 03016KT 9999 NCD 05/M06 Q1039

Hora: 20:34 (19:34 UTC)


TAF: manca

Observacions i pronòstics meteorològics de més de 4000 aeroports (METAR i TAF).

Les estacions disponibles són els punts grocs i vermells al mapa.

Posi el ratolí al punt desitjat per veure el nom de l'estació.

Feu clic per veure les observacions i els pronòstics meteorològics.

Per canviar el mapa: feu clic els botons verds amb una creu de color negre per apropar; al botó verd amb un guió per allunyar la imatge; o en les fletxes verdes per a mapes adjacents.


METAR-TAF: